Time;durP1;ratioP1;P1;durP2;ratioP2;P2;SDS_P1;SDS_P2;PMS_P1;PMS_P2;Temp;Humidity;BMP_temperature;BMP_pressure;BME280_temperature;BME280_humidity;BME280_pressure;Samples;Min_cycle;Max_cycle;Signal;HPM_P1;HPM_P2
2022/03/18 00:00:00;;;;;;;;;36.50;30.50;;;;;6.66;71.16;102784.59;4941703;28;45356;-66
2022/03/18 00:02:26;;;;;;;;;31.25;27.75;;;;;6.63;70.70;102782.81;4939900;28;45459;-65
2022/03/18 00:04:53;;;;;;;;;31.50;27.25;;;;;6.57;70.49;102778.38;4940182;28;45386;-61
2022/03/18 00:07:20;;;;;;;;;35.25;30.75;;;;;6.53;70.45;102778.31;4939573;28;45292;-66
2022/03/18 00:09:49;;;;;;;;;36.25;29.50;;;;;6.49;70.96;102780.03;4972341;28;45398;-62
2022/03/18 00:12:15;;;;;;;;;30.25;28.00;;;;;6.46;71.06;102780.00;4940422;28;45461;-65
2022/03/18 00:14:40;;;;;;;;;32.75;24.50;;;;;6.43;70.47;102779.97;4940528;28;45464;-66
2022/03/18 00:17:11;;;;;;;;;36.50;28.00;;;;;6.43;71.38;102778.22;4939426;28;46047;-64
2022/03/18 00:19:38;;;;;;;;;39.50;30.75;;;;;6.41;70.76;102774.69;4939516;28;45302;-65
2022/03/18 00:22:05;;;;;;;;;33.00;30.50;;;;;6.39;70.99;102775.56;4940045;28;45402;-63
2022/03/18 00:24:32;;;;;;;;;37.50;32.00;;;;;6.33;71.02;102770.22;4941536;28;45401;-67
2022/03/18 00:26:58;;;;;;;;;37.00;29.75;;;;;6.31;70.92;102774.53;4939989;28;45472;-64
2022/03/18 00:29:25;;;;;;;;;37.50;31.75;;;;;6.24;70.97;102773.59;4945701;28;45294;-61
2022/03/18 00:31:51;;;;;;;;;38.50;31.00;;;;;6.22;71.16;102781.41;4942700;28;45303;-64
2022/03/18 00:34:16;;;;;;;;;38.00;32.50;;;;;6.18;71.76;102784.84;4944068;28;45614;-61
2022/03/18 00:36:41;;;;;;;;;42.25;34.00;;;;;6.16;72.13;102789.16;4940864;28;46000;-61
2022/03/18 00:39:07;;;;;;;;;38.25;31.75;;;;;6.13;71.95;102794.34;4940540;28;45231;-63
2022/03/18 00:41:33;;;;;;;;;34.75;28.75;;;;;6.12;72.04;102796.09;4940959;28;45251;-65
2022/03/18 00:43:58;;;;;;;;;39.75;29.75;;;;;6.09;72.37;102795.16;4941640;28;45405;-66
2022/03/18 00:46:24;;;;;;;;;36.00;32.50;;;;;6.06;71.78;102795.13;4942645;28;46802;-59
2022/03/18 00:54:18;;;;;;;;;34.75;30.00;;;;;6.02;72.56;102804.66;4939637;28;45298;-58
2022/03/18 00:56:44;;;;;;;;;39.25;31.25;;;;;5.99;71.79;102795.00;4939065;28;45217;-60
2022/03/18 00:59:10;;;;;;;;;34.00;30.75;;;;;5.96;72.19;102802.78;4939167;28;45294;-58
2022/03/18 01:01:35;;;;;;;;;40.25;34.75;;;;;5.94;71.84;102795.81;4939151;28;45358;-64
2022/03/18 01:04:01;;;;;;;;;36.25;32.00;;;;;5.92;72.69;102790.56;4940490;28;45414;-62
2022/03/18 01:06:26;;;;;;;;;33.75;30.25;;;;;5.90;72.89;102786.16;4940726;28;46282;-64
2022/03/18 01:08:51;;;;;;;;;40.50;33.25;;;;;5.89;72.84;102794.88;4940011;28;45376;-63
2022/03/18 01:11:17;;;;;;;;;35.25;32.50;;;;;5.85;72.49;102792.22;4941506;28;45300;-61
2022/03/18 01:13:42;;;;;;;;;40.50;33.50;;;;;5.77;72.73;102777.25;4939371;28;45465;-61
2022/03/18 01:16:08;;;;;;;;;34.50;30.50;;;;;5.79;72.85;102788.59;4939091;28;46012;-64
2022/03/18 01:18:33;;;;;;;;;33.50;28.00;;;;;5.76;72.70;102783.34;4938988;28;45453;-61
2022/03/18 01:20:58;;;;;;;;;41.25;31.50;;;;;5.70;73.37;102786.72;4943581;28;45425;-66
2022/03/18 01:23:24;;;;;;;;;50.25;38.75;;;;;5.70;73.97;102802.38;4939138;28;45385;-63
2022/03/18 01:25:49;;;;;;;;;39.50;34.75;;;;;5.69;73.08;102806.75;4938998;28;46097;-58
2022/03/18 01:28:15;;;;;;;;;47.25;38.00;;;;;5.68;73.62;102801.47;4938588;28;45394;-65
2022/03/18 01:30:41;;;;;;;;;43.50;32.50;;;;;5.64;73.33;102800.56;4938800;28;45455;-62
2022/03/18 01:33:06;;;;;;;;;38.25;30.50;;;;;5.65;73.16;102802.31;4940438;28;45259;-65
2022/03/18 01:35:32;;;;;;;;;34.75;30.50;;;;;5.63;74.03;102796.22;4939287;28;45338;-66
2022/03/18 01:37:57;;;;;;;;;32.00;30.25;;;;;5.61;73.79;102805.75;4938380;28;45306;-63
2022/03/18 01:40:22;;;;;;;;;38.00;30.25;;;;;5.59;73.73;102799.63;4938369;28;45191;-63
2022/03/18 01:42:48;;;;;;;;;34.75;32.50;;;;;5.55;73.69;102788.22;4954380;28;45443;-63
2022/03/18 01:45:13;;;;;;;;;35.50;31.75;;;;;5.56;73.90;102792.59;4938680;28;45208;-63
2022/03/18 01:47:45;;;;;;;;;38.75;32.00;;;;;5.54;74.43;102798.66;4939547;28;45558;-65
2022/03/18 01:50:13;;;;;;;;;33.50;28.75;;;;;5.53;74.56;102796.91;4942827;28;45388;-64
2022/03/18 01:52:38;;;;;;;;;26.00;25.00;;;;;5.53;74.34;102797.78;4942202;28;45422;-65
2022/03/18 01:55:05;;;;;;;;;34.25;30.75;;;;;5.53;74.39;102799.53;4938744;28;46103;-61
2022/03/18 01:57:30;;;;;;;;;36.75;29.00;;;;;5.48;74.23;102795.97;4940811;28;45387;-61
2022/03/18 01:59:56;;;;;;;;;32.25;31.75;;;;;5.49;74.09;102803.78;4939441;28;45373;-61
2022/03/18 02:02:21;;;;;;;;;35.25;30.75;;;;;5.48;75.27;102802.03;4953823;28;45482;-61
2022/03/18 02:04:47;;;;;;;;;35.75;29.50;;;;;5.40;74.50;102788.88;4940184;28;45553;-58
2022/03/18 02:07:14;;;;;;;;;38.25;33.00;;;;;5.44;74.58;102796.75;4941379;28;45265;-60
2022/03/18 02:09:40;;;;;;;;;38.25;33.75;;;;;5.43;75.23;102802.84;4940664;28;45307;-62
2022/03/18 02:12:07;;;;;;;;;37.25;33.25;;;;;5.40;75.57;102804.53;4938773;28;45389;-63
2022/03/18 02:14:37;;;;;;;;;37.00;32.00;;;;;5.40;75.21;102795.81;4935375;28;47250;-59
2022/03/18 02:17:04;;;;;;;;;44.50;32.25;;;;;5.38;75.30;102795.81;4939065;28;45262;-59
2022/03/18 02:19:31;;;;;;;;;42.25;31.75;;;;;5.34;75.28;102798.31;4938777;28;45237;-60
2022/03/18 02:21:57;;;;;;;;;41.00;32.00;;;;;5.35;75.44;102810.50;4940034;28;45521;-60
2022/03/18 02:24:23;;;;;;;;;42.75;33.50;;;;;5.30;75.40;102802.63;4938148;28;46259;-60
2022/03/18 02:26:53;;;;;;;;;38.25;33.50;;;;;5.33;75.66;102809.59;4938277;28;45382;-58
2022/03/18 02:29:21;;;;;;;;;44.50;34.50;;;;;5.32;75.59;102816.56;4938205;28;45530;-59
2022/03/18 02:31:47;;;;;;;;;32.00;29.75;;;;;5.30;75.00;102815.66;4939030;28;45437;-60
2022/03/18 02:34:13;;;;;;;;;43.75;35.25;;;;;5.27;75.46;102807.75;4938729;28;45321;-57
2022/03/18 02:36:39;;;;;;;;;41.00;33.50;;;;;5.25;76.11;102801.63;4939011;28;45270;-56
2022/03/18 02:39:04;;;;;;;;;39.50;29.50;;;;;5.20;75.93;102795.44;4937811;28;45349;-66
2022/03/18 02:41:30;;;;;;;;;41.00;35.00;;;;;5.15;75.95;102784.06;4938109;28;45517;-59
2022/03/18 02:43:56;;;;;;;;;50.75;39.50;;;;;5.14;76.88;102783.19;4954006;28;47446;-59
2022/03/18 02:46:21;;;;;;;;;50.50;38.50;;;;;5.08;76.51;102781.34;4938724;28;45289;-62
2022/03/18 02:48:47;;;;;;;;;47.50;37.25;;;;;5.09;76.20;102790.91;4952829;28;45362;-62
2022/03/18 02:51:13;;;;;;;;;46.00;37.00;;;;;5.05;76.70;102789.09;4955677;28;45291;-60
2022/03/18 02:53:38;;;;;;;;;48.25;36.50;;;;;5.02;76.15;102791.66;4938551;28;45403;-61
2022/03/18 02:56:04;;;;;;;;;40.50;34.00;;;;;4.96;76.90;102781.13;4940347;28;45400;-61
2022/03/18 02:58:30;;;;;;;;;48.50;36.75;;;;;5.01;76.72;102789.91;4940302;28;45382;-59
2022/03/18 03:00:56;;;;;;;;;45.50;38.50;;;;;5.00;76.71;102798.56;4939343;28;45602;-61
2022/03/18 03:03:21;;;;;;;;;45.75;35.75;;;;;4.99;76.96;102794.22;4963047;28;47008;-59
2022/03/18 03:08:31;;;;;;;;;44.75;35.75;;;;;4.93;76.82;102792.38;4940056;28;45279;-63
2022/03/18 03:10:58;;;;;;;;;45.25;39.00;;;;;4.94;76.71;102801.06;4938429;28;45251;-59
2022/03/18 03:13:24;;;;;;;;;46.25;38.00;;;;;4.90;76.97;102801.88;4937453;28;46441;-58
2022/03/18 03:15:50;;;;;;;;;46.50;37.25;;;;;4.89;77.27;102805.31;4937687;28;45384;-64
2022/03/18 03:18:15;;;;;;;;;46.00;39.50;;;;;4.82;76.77;102802.59;4937866;28;45635;-64
2022/03/18 03:20:40;;;;;;;;;52.00;39.00;;;;;4.86;77.30;102807.88;4938190;28;45537;-63
2022/03/18 03:23:06;;;;;;;;;46.50;38.00;;;;;4.85;76.62;102813.94;4937301;28;46124;-63
2022/03/18 03:25:31;;;;;;;;;47.75;38.00;;;;;4.82;77.54;102826.06;4968663;28;45400;-63
2022/03/18 03:27:56;;;;;;;;;51.25;40.50;;;;;4.81;77.55;102832.13;4969887;28;45388;-59
2022/03/18 03:30:23;;;;;;;;;53.75;41.25;;;;;4.74;77.38;102822.41;4939178;28;45524;-64
2022/03/18 03:32:49;;;;;;;;;53.25;41.00;;;;;4.77;77.51;102834.63;4939301;28;46243;-61
2022/03/18 03:35:15;;;;;;;;;65.50;47.75;;;;;4.77;77.53;102830.31;4937841;28;45282;-62
2022/03/18 03:37:41;;;;;;;;;61.75;48.50;;;;;4.74;78.03;102832.84;4938495;28;45286;-59
2022/03/18 03:40:08;;;;;;;;;63.25;49.50;;;;;4.73;78.54;102832.81;4938037;28;45440;-62
2022/03/18 03:42:34;;;;;;;;;66.25;48.25;;;;;4.70;78.29;102830.13;4937505;28;46334;-61
2022/03/18 03:44:59;;;;;;;;;65.50;50.00;;;;;4.71;78.64;102824.97;4937444;28;45346;-57
2022/03/18 03:47:25;;;;;;;;;58.25;46.25;;;;;4.68;78.72;102819.69;4937960;28;45326;-58
2022/03/18 03:49:50;;;;;;;;;57.00;47.25;;;;;4.67;78.29;102826.63;4937555;28;45302;-60
2022/03/18 03:52:16;;;;;;;;;51.50;42.25;;;;;4.61;78.53;102812.59;4937250;28;45984;-59
2022/03/18 03:54:42;;;;;;;;;58.75;43.75;;;;;4.64;78.14;102821.34;4938052;28;45341;-58
2022/03/18 03:57:08;;;;;;;;;57.25;44.25;;;;;4.66;78.16;102829.22;4937794;28;45308;-55
2022/03/18 03:59:34;;;;;;;;;58.50;43.50;;;;;4.66;77.93;102837.03;4937040;28;45632;-61
2022/03/18 04:02:00;;;;;;;;;52.00;39.75;;;;;4.65;78.08;102835.28;4936887;28;46182;-62
2022/03/18 04:04:26;;;;;;;;;54.75;42.50;;;;;4.64;78.54;102830.91;4940145;28;45484;-66
2022/03/18 04:06:52;;;;;;;;;52.75;42.50;;;;;4.56;78.13;102827.25;4940288;28;45267;-56
2022/03/18 04:09:17;;;;;;;;;48.75;38.75;;;;;4.61;78.51;102844.75;4968799;28;45145;-65
2022/03/18 04:11:43;;;;;;;;;50.25;41.75;;;;;4.60;78.46;102850.81;4936283;28;45343;-64
2022/03/18 04:14:08;;;;;;;;;39.25;35.50;;;;;4.60;78.40;102852.53;4936841;28;45226;-62
2022/03/18 04:16:34;;;;;;;;;54.50;40.00;;;;;4.58;78.03;102838.59;4937780;28;45278;-60
2022/03/18 04:19:00;;;;;;;;;38.75;35.75;;;;;4.55;77.63;102843.75;4939372;28;45268;-62
2022/03/18 04:21:25;;;;;;;;;49.50;38.25;;;;;4.53;78.31;102854.13;4936864;28;46071;-60
2022/03/18 04:23:50;;;;;;;;;47.75;38.50;;;;;4.48;78.37;102832.28;4940366;28;45409;-64
2022/03/18 04:26:16;;;;;;;;;47.25;37.75;;;;;4.48;78.45;102843.63;4936767;28;45385;-60
2022/03/18 04:28:42;;;;;;;;;46.75;36.50;;;;;4.46;78.21;102853.13;4967878;28;45300;-60
2022/03/18 04:31:07;;;;;;;;;44.75;37.75;;;;;4.44;78.38;102856.53;4967949;28;46184;-62
2022/03/18 04:33:32;;;;;;;;;47.25;39.00;;;;;4.44;78.08;102872.16;4935442;28;45344;-62
2022/03/18 04:35:58;;;;;;;;;41.00;34.25;;;;;4.43;78.10;102862.59;4937086;28;45418;-65
2022/03/18 04:38:23;;;;;;;;;47.75;37.50;;;;;4.42;77.95;102864.34;4938796;28;45438;-63
2022/03/18 04:40:49;;;;;;;;;43.50;35.25;;;;;4.33;78.14;102859.78;4942606;28;46283;-65
2022/03/18 04:43:15;;;;;;;;;35.00;32.00;;;;;4.33;78.01;102866.72;4971775;28;45740;-65
2022/03/18 04:45:40;;;;;;;;;45.25;36.75;;;;;4.36;77.99;102880.69;4939640;28;45338;-63
2022/03/18 04:48:06;;;;;;;;;44.50;36.25;;;;;4.29;77.86;102875.31;4939798;28;45297;-65
2022/03/18 04:50:33;;;;;;;;;44.75;37.25;;;;;4.30;78.07;102884.91;4942016;28;46467;-65
2022/03/18 04:52:58;;;;;;;;;44.00;36.50;;;;;4.27;78.43;102884.84;4942284;28;45295;-64
2022/03/18 04:55:24;;;;;;;;;49.50;38.75;;;;;4.26;78.44;102880.47;4943280;28;45248;-62
2022/03/18 04:57:49;;;;;;;;;47.00;37.50;;;;;4.24;78.18;102878.72;4943439;28;45247;-63
2022/03/18 05:00:15;;;;;;;;;37.75;32.00;;;;;4.22;78.23;102879.50;4945499;28;45464;-61
2022/03/18 05:02:41;;;;;;;;;38.75;34.50;;;;;4.20;78.55;102887.25;4945249;28;45471;-63
2022/03/18 05:05:11;;;;;;;;;46.00;36.25;;;;;4.18;78.32;102873.31;4944719;28;45267;-62
2022/03/18 05:07:39;;;;;;;;;44.50;36.00;;;;;4.16;77.98;102877.63;4939977;28;45335;-63
2022/03/18 05:10:09;;;;;;;;;38.75;34.50;;;;;4.13;77.61;102871.47;4943761;28;46217;-64
2022/03/18 05:12:34;;;;;;;;;40.25;35.50;;;;;4.16;78.37;102888.03;4940540;28;45375;-64
2022/03/18 05:14:59;;;;;;;;;38.50;34.50;;;;;4.14;77.62;102889.72;4939843;28;45356;-63
2022/03/18 05:17:25;;;;;;;;;38.25;34.00;;;;;4.16;77.41;102898.47;4939043;28;45497;-62
2022/03/18 05:19:51;;;;;;;;;40.50;35.50;;;;;4.05;78.09;102881.69;4939052;28;46022;-61
2022/03/18 05:22:17;;;;;;;;;42.75;35.75;;;;;4.14;77.45;102907.97;4938895;28;45247;-62
2022/03/18 05:24:42;;;;;;;;;40.00;34.00;;;;;4.13;77.77;102910.53;4939270;28;45411;-62
2022/03/18 05:27:07;;;;;;;;;40.25;35.25;;;;;4.06;77.61;102904.28;4941294;28;45346;-65
2022/03/18 05:29:33;;;;;;;;;39.25;33.00;;;;;4.09;77.21;102909.56;4941671;28;45359;-65
2022/03/18 05:32:00;;;;;;;;;37.00;33.50;;;;;4.06;77.05;102902.59;4939057;28;45239;-66
2022/03/18 05:34:25;;;;;;;;;39.75;33.75;;;;;4.07;77.04;102919.97;4939297;28;45389;-64
2022/03/18 05:36:51;;;;;;;;;35.25;32.75;;;;;4.03;77.38;102923.34;4939030;28;45539;-66
2022/03/18 05:39:17;;;;;;;;;41.50;35.50;;;;;4.05;76.79;102923.38;4938690;28;46285;-65
2022/03/18 05:41:45;;;;;;;;;37.25;34.50;;;;;4.02;77.48;102929.41;4938778;28;45526;-64
2022/03/18 05:44:11;;;;;;;;;38.25;34.00;;;;;3.94;77.30;102912.69;4939102;28;45396;-67
2022/03/18 05:46:37;;;;;;;;;40.00;33.75;;;;;3.99;76.96;102916.28;4938974;28;45573;-67
2022/03/18 05:49:03;;;;;;;;;45.50;35.25;;;;;4.01;77.08;102918.91;4937693;28;45327;-63
2022/03/18 05:51:29;;;;;;;;;35.75;28.75;;;;;4.00;76.74;102930.19;4939117;28;45391;-68
2022/03/18 05:53:55;;;;;;;;;43.75;34.50;;;;;4.00;76.82;102925.88;4939864;28;45295;-65
2022/03/18 05:59:06;;;;;;;;;47.50;36.25;;;;;3.98;76.58;102922.34;4939778;28;45342;-65
2022/03/18 06:01:34;;;;;;;;;48.75;35.75;;;;;3.98;76.38;102921.44;4970078;28;45594;-64
2022/03/18 06:04:01;;;;;;;;;35.50;27.50;;;;;3.98;75.97;102911.94;4938395;28;45337;-63
2022/03/18 06:06:26;;;;;;;;;38.50;32.25;;;;;3.98;76.41;102927.56;4938365;28;45216;-66
2022/03/18 06:11:48;;;;;;;;;41.00;34.75;;;;;4.00;75.86;102930.19;4938302;28;45379;-56
2022/03/18 06:14:14;;;;;;;;;37.50;33.75;;;;;4.02;75.73;102931.09;4939720;28;45362;-64
2022/03/18 06:16:39;;;;;;;;;43.50;36.50;;;;;3.97;75.17;102931.00;4940833;28;45342;-65
2022/03/18 06:19:05;;;;;;;;;39.25;35.00;;;;;3.95;75.99;102924.88;4938049;28;46141;-65
2022/03/18 06:21:31;;;;;;;;;40.00;32.75;;;;;4.01;75.85;102929.34;4937877;28;45754;-63
2022/03/18 06:23:56;;;;;;;;;33.00;29.50;;;;;4.06;75.37;102940.75;4938027;28;45431;-66
2022/03/18 06:26:22;;;;;;;;;37.25;32.50;;;;;4.07;75.16;102933.00;4938221;28;45583;-65
2022/03/18 06:28:48;;;;;;;;;39.00;34.50;;;;;4.06;75.26;102938.16;4937883;28;45428;-65
2022/03/18 06:31:13;;;;;;;;;35.00;32.25;;;;;4.10;75.16;102942.59;4937746;28;45311;-65
2022/03/18 06:33:44;;;;;;;;;40.75;35.25;;;;;4.11;74.85;102943.50;4939288;28;45531;-66
2022/03/18 06:36:11;;;;;;;;;39.25;32.75;;;;;4.11;74.70;102951.31;4943382;28;45310;-69
2022/03/18 06:38:36;;;;;;;;;53.50;43.50;;;;;4.14;75.24;102946.16;4938026;28;45353;-66
2022/03/18 06:41:02;;;;;;;;;29.00;29.00;;;;;4.19;74.64;102948.03;4939496;28;45434;-65
2022/03/18 06:43:27;;;;;;;;;44.00;36.00;;;;;4.20;74.27;102954.13;4958877;28;45241;-63
2022/03/18 06:45:52;;;;;;;;;38.25;34.50;;;;;4.21;74.29;102956.75;4939493;28;45377;-62
2022/03/18 06:48:18;;;;;;;;;41.50;33.25;;;;;4.18;73.90;102946.25;4939920;28;46077;-64
2022/03/18 06:50:43;;;;;;;;;37.25;33.75;;;;;4.19;74.27;102945.41;4938375;28;45419;-63
2022/03/18 06:53:09;;;;;;;;;39.50;33.50;;;;;4.14;73.93;102923.59;4937412;28;45311;-65
2022/03/18 06:55:35;;;;;;;;;37.50;33.50;;;;;4.18;73.78;102930.63;4937959;28;45581;-62
2022/03/18 06:58:01;;;;;;;;;41.00;31.75;;;;;4.20;73.72;102944.56;4945545;28;45409;-64
2022/03/18 07:00:26;;;;;;;;;46.50;36.00;;;;;4.20;73.79;102920.25;4954607;28;45231;-61
2022/03/18 07:02:52;;;;;;;;;38.25;33.50;;;;;4.27;73.61;102926.53;4940499;28;45322;-65
2022/03/18 07:05:17;;;;;;;;;39.00;34.25;;;;;4.29;73.00;102924.84;4936590;28;45854;-65
2022/03/18 07:07:42;;;;;;;;;41.25;35.50;;;;;4.24;73.25;102915.19;4937132;28;46206;-61
2022/03/18 07:10:08;;;;;;;;;43.25;32.75;;;;;4.38;73.02;102927.66;4937131;28;45434;-62
2022/03/18 07:12:33;;;;;;;;;41.50;34.50;;;;;4.43;73.09;102925.13;4937569;28;45328;-62
2022/03/18 07:14:59;;;;;;;;;36.00;28.25;;;;;4.50;72.72;102946.19;4937605;28;45219;-63
2022/03/18 07:20:09;;;;;;;;;43.25;35.50;;;;;4.62;71.95;102931.66;4940310;28;45237;-66
2022/03/18 07:22:34;;;;;;;;;39.75;32.25;;;;;4.66;71.65;102923.06;4954788;28;45330;-65
2022/03/18 07:25:00;;;;;;;;;39.25;35.50;;;;;4.73;71.63;102935.38;4939512;28;45649;-62
2022/03/18 07:27:25;;;;;;;;;37.00;32.75;;;;;4.83;71.10;102936.47;4937783;28;46174;-63
2022/03/18 07:29:57;;;;;;;;;36.00;32.00;;;;;4.86;70.17;102926.13;4939573;28;45450;-58
2022/03/18 07:32:22;;;;;;;;;38.50;26.25;;;;;4.97;70.01;102939.38;4938183;28;45235;-65
2022/03/18 07:34:47;;;;;;;;;35.50;30.75;;;;;4.96;70.17;102930.69;4937090;28;45267;-63
2022/03/18 07:37:13;;;;;;;;;35.50;31.25;;;;;4.99;70.21;102914.19;4936952;28;46038;-64
2022/03/18 07:39:38;;;;;;;;;39.50;31.00;;;;;5.11;69.80;102922.28;4938684;28;45256;-65
2022/03/18 07:42:04;;;;;;;;;40.25;30.25;;;;;5.16;69.22;102929.31;4939339;28;45294;-67
2022/03/18 07:44:30;;;;;;;;;37.75;29.75;;;;;5.20;69.46;102924.19;4937859;28;45363;-67
2022/03/18 07:46:55;;;;;;;;;37.75;29.50;;;;;5.28;69.12;102921.72;4937347;28;46107;-63
2022/03/18 07:49:21;;;;;;;;;36.00;32.50;;;;;5.33;69.10;102938.38;4940241;28;45831;-61
2022/03/18 07:51:46;;;;;;;;;39.75;32.25;;;;;5.37;68.69;102932.38;4936150;28;45750;-66
2022/03/18 07:54:11;;;;;;;;;34.25;30.25;;;;;5.37;68.04;102929.78;4937940;28;44835;-64
2022/03/18 07:56:37;;;;;;;;;28.00;24.00;;;;;5.43;68.02;102943.78;4937338;28;45493;-63
2022/03/18 07:59:02;;;;;;;;;33.00;28.00;;;;;5.48;68.00;102937.78;4936615;28;45284;-61
2022/03/18 08:01:29;;;;;;;;;34.50;32.25;;;;;5.55;68.27;102954.47;4937099;28;45468;-62
2022/03/18 08:03:54;;;;;;;;;36.75;28.50;;;;;5.61;67.30;102954.56;4936965;28;45436;-66
2022/03/18 08:06:20;;;;;;;;;29.00;26.50;;;;;5.65;67.04;102951.16;4937320;28;46973;-65
2022/03/18 08:08:46;;;;;;;;;31.75;28.75;;;;;5.69;66.87;102946.88;4937298;28;45768;-66
2022/03/18 08:11:11;;;;;;;;;32.00;31.00;;;;;5.76;67.07;102943.50;4937537;28;45289;-65
2022/03/18 08:13:37;;;;;;;;;41.00;33.75;;;;;5.85;66.33;102948.03;4942248;28;45615;-64
2022/03/18 08:16:03;;;;;;;;;30.00;26.50;;;;;5.92;66.67;102939.44;4943587;28;46426;-63
2022/03/18 08:18:29;;;;;;;;;37.75;30.50;;;;;5.99;66.89;102943.94;4940229;28;45370;-63
2022/03/18 08:20:54;;;;;;;;;33.00;31.00;;;;;6.09;66.31;102959.78;4940673;28;45251;-66
2022/03/18 08:23:20;;;;;;;;;32.50;28.75;;;;;6.20;66.35;102959.97;4941786;28;45358;-66
2022/03/18 08:25:46;;;;;;;;;35.25;31.25;;;;;6.27;64.90;102952.25;4941480;28;47683;-62
2022/03/18 08:28:11;;;;;;;;;36.25;29.50;;;;;6.34;65.07;102963.69;4942034;28;45231;-66
2022/03/18 08:30:38;;;;;;;;;37.75;31.25;;;;;6.36;65.24;102950.63;4940375;28;45265;-68
2022/03/18 08:33:04;;;;;;;;;29.00;26.75;;;;;6.51;64.50;102955.22;4940205;28;44994;-65
2022/03/18 08:35:29;;;;;;;;;37.50;31.00;;;;;6.57;65.11;102961.44;4939431;28;45322;-66
2022/03/18 08:37:58;;;;;;;;;34.75;30.75;;;;;6.70;63.09;102966.84;4939598;28;45374;-65
2022/03/18 08:40:34;;;;;;;;;26.75;23.00;;;;;6.76;63.08;102963.44;4938032;28;45219;-65
2022/03/18 08:43:05;;;;;;;;;34.00;29.50;;;;;6.85;63.14;102963.56;4939985;28;45327;-67
2022/03/18 08:45:31;;;;;;;;;33.25;29.50;;;;;6.85;61.54;102959.22;4939085;28;46481;-65
2022/03/18 08:47:57;;;;;;;;;31.50;27.00;;;;;6.96;62.59;102959.38;4939117;28;45190;-63
2022/03/18 08:50:23;;;;;;;;;29.75;26.75;;;;;7.04;61.54;102964.69;4939216;28;45302;-64
2022/03/18 08:52:51;;;;;;;;;28.50;22.00;;;;;7.09;60.26;102955.16;4943162;28;45235;-66
2022/03/18 08:55:17;;;;;;;;;32.50;25.25;;;;;7.19;61.49;102958.78;4944090;28;47306;-69
2022/03/18 08:57:42;;;;;;;;;26.25;24.00;;;;;7.25;60.17;102965.81;4943727;28;45493;-66
2022/03/18 09:00:11;;;;;;;;;25.75;24.25;;;;;7.34;60.28;102965.94;4957642;28;45763;-66
2022/03/18 09:02:38;;;;;;;;;32.25;29.50;;;;;7.41;58.43;102957.28;4944106;28;45170;-63
2022/03/18 09:05:05;;;;;;;;;32.25;27.00;;;;;7.51;58.57;102970.50;4940260;28;46408;-65
2022/03/18 09:07:32;;;;;;;;;29.25;27.00;;;;;7.57;59.02;102960.97;4939881;28;45354;-66
2022/03/18 09:09:58;;;;;;;;;34.00;27.25;;;;;7.65;57.84;102960.16;4939063;28;45314;-67
2022/03/18 09:12:24;;;;;;;;;24.25;20.50;;;;;7.69;57.47;102946.22;4938338;28;45353;-64
2022/03/18 09:14:49;;;;;;;;;29.00;25.75;;;;;7.89;58.24;102972.63;4938610;28;45372;-67
2022/03/18 09:17:15;;;;;;;;;21.75;19.75;;;;;7.92;55.22;102962.19;4939156;28;45322;-57
2022/03/18 09:19:40;;;;;;;;;26.50;21.75;;;;;8.05;56.22;102968.44;4954265;28;45344;-67
2022/03/18 09:22:10;;;;;;;;;27.25;24.25;;;;;8.16;54.94;102955.38;4971973;28;45490;-64
2022/03/18 09:24:36;;;;;;;;;19.50;18.00;;;;;8.25;56.09;102971.19;4940150;28;45323;-65
2022/03/18 09:27:03;;;;;;;;;29.25;22.75;;;;;8.35;55.29;102951.19;4970434;28;46100;-64
2022/03/18 09:29:28;;;;;;;;;21.75;20.25;;;;;8.47;54.79;102966.09;4941559;28;45366;-66
2022/03/18 09:31:54;;;;;;;;;21.75;21.25;;;;;8.55;53.47;102961.84;4940490;28;45263;-66
2022/03/18 09:34:24;;;;;;;;;23.50;18.00;;;;;8.62;50.88;102963.66;4941186;28;45363;-65
2022/03/18 09:36:59;;;;;;;;;29.00;21.00;;;;;8.72;51.56;102974.19;4940224;28;45320;-63
2022/03/18 09:39:26;;;;;;;;;20.50;18.50;;;;;8.81;52.04;102961.13;4939312;28;45282;-64
2022/03/18 09:41:53;;;;;;;;;20.25;18.00;;;;;8.93;49.66;102973.41;4939043;28;45574;-64
2022/03/18 09:44:18;;;;;;;;;20.25;19.00;;;;;9.00;49.36;102969.09;4938742;28;45350;-66
2022/03/18 09:46:47;;;;;;;;;18.00;17.50;;;;;9.08;47.72;102967.38;4938819;28;45414;-65
2022/03/18 09:49:17;;;;;;;;;24.50;19.00;;;;;9.18;47.86;102973.56;4941435;28;45386;-64
2022/03/18 09:51:44;;;;;;;;;24.00;21.25;;;;;9.27;48.46;102962.19;4940839;28;45565;-65
2022/03/18 09:54:11;;;;;;;;;26.25;15.75;;;;;9.32;47.18;102965.72;4939920;28;46304;-66
2022/03/18 09:56:39;;;;;;;;;26.50;22.00;;;;;9.37;47.83;102958.72;4937718;28;45311;-65
2022/03/18 09:59:05;;;;;;;;;25.00;19.75;;;;;9.48;46.27;102962.25;4938162;28;45460;-65
2022/03/18 10:01:30;;;;;;;;;17.75;16.00;;;;;9.57;47.69;102966.66;4938622;28;45676;-67
2022/03/18 10:04:06;;;;;;;;;23.75;20.50;;;;;9.72;47.18;102967.56;4952923;28;48453;-68
2022/03/18 10:06:32;;;;;;;;;23.75;19.25;;;;;9.83;46.74;102967.59;4969253;28;45469;-61
2022/03/18 10:08:59;;;;;;;;;19.50;19.50;;;;;9.80;45.94;102965.84;4938373;28;45330;-64
2022/03/18 10:11:27;;;;;;;;;25.25;20.25;;;;;9.95;47.85;102967.63;4938560;28;45611;-64
2022/03/18 10:14:29;;;;;;;;;29.50;23.75;;;;;10.11;48.09;102976.41;4937776;28;46261;-64
2022/03/18 10:16:56;;;;;;;;;22.50;18.25;;;;;10.24;45.51;102977.25;4955909;28;45366;-66
2022/03/18 10:19:24;;;;;;;;;20.00;19.25;;;;;10.23;45.22;102962.34;4937674;28;45291;-67
2022/03/18 10:21:50;;;;;;;;;22.25;22.25;;;;;10.37;46.73;102971.09;4937867;28;45238;-67
2022/03/18 10:24:16;;;;;;;;;18.00;16.75;;;;;10.49;45.26;102964.09;4938382;28;45500;-67
2022/03/18 10:26:42;;;;;;;;;21.00;15.50;;;;;10.58;44.05;102958.81;4969977;28;45512;-66
2022/03/18 10:29:16;;;;;;;;;15.25;14.00;;;;;10.69;44.89;102960.59;4938525;28;45414;-68
2022/03/18 10:31:59;;;;;;;;;24.75;23.25;;;;;10.74;43.82;102954.41;4937983;28;45289;-68
2022/03/18 10:37:22;;;;;;;;;26.75;18.00;;;;;10.93;42.30;102944.72;4938228;28;45318;-65
2022/03/18 10:39:50;;;;;;;;;15.50;13.00;;;;;11.05;42.12;102950.81;4938521;28;45303;-60
2022/03/18 10:42:18;;;;;;;;;17.25;14.50;;;;;11.16;42.71;102943.72;4938425;28;45343;-64
2022/03/18 10:44:59;;;;;;;;;19.75;17.25;;;;;11.33;43.30;102940.13;4937579;28;45327;-66
2022/03/18 10:47:32;;;;;;;;;15.00;14.50;;;;;11.49;41.27;102941.78;4936512;28;45348;-67
2022/03/18 10:50:09;;;;;;;;;16.75;13.25;;;;;11.63;42.89;102933.81;4952122;28;45424;-66
2022/03/18 10:52:36;;;;;;;;;17.75;16.50;;;;;11.77;41.73;102936.34;4941100;28;45433;-65
2022/03/18 10:55:29;;;;;;;;;17.25;13.50;;;;;11.76;39.97;102934.59;4938236;28;46237;-66
2022/03/18 10:57:59;;;;;;;;;19.50;15.25;;;;;11.75;39.37;102937.25;4938385;28;45365;-65
2022/03/18 11:00:30;;;;;;;;;16.50;14.75;;;;;11.82;40.57;102936.31;4971005;28;45174;-67
2022/03/18 11:03:00;;;;;;;;;21.25;15.50;;;;;11.89;39.22;102931.88;4940390;28;45335;-64
2022/03/18 11:05:30;;;;;;;;;18.25;15.25;;;;;11.90;39.56;102938.91;4939012;28;46308;-66
2022/03/18 11:07:57;;;;;;;;;18.25;17.25;;;;;11.98;38.09;102932.66;4938054;28;45492;-65
2022/03/18 11:13:08;;;;;;;;;17.75;15.25;;;;;12.04;37.84;102931.78;4938006;28;45245;-62
2022/03/18 11:15:35;;;;;;;;;14.75;14.75;;;;;12.05;37.01;102932.63;4937746;28;46515;-59
2022/03/18 11:18:04;;;;;;;;;24.75;19.50;;;;;12.11;39.00;102928.19;4939166;28;45396;-65
2022/03/18 11:20:33;;;;;;;;;19.00;17.00;;;;;12.28;37.02;102929.78;4938574;28;45311;-62
2022/03/18 11:22:58;;;;;;;;;30.00;23.75;;;;;12.33;33.66;102930.63;4953675;28;45278;-66
2022/03/18 11:25:26;;;;;;;;;22.00;19.50;;;;;12.31;34.23;102924.50;4937549;28;45354;-61
2022/03/18 11:27:53;;;;;;;;;11.00;11.00;;;;;12.36;31.92;102927.09;4937839;28;45321;-63
2022/03/18 11:30:21;;;;;;;;;20.00;15.25;;;;;12.34;34.91;102907.75;4952812;28;45330;-59
2022/03/18 11:33:11;;;;;;;;;15.00;12.25;;;;;12.54;35.65;102926.00;4937349;28;45254;-65
2022/03/18 11:35:51;;;;;;;;;19.00;17.00;;;;;12.66;33.90;102933.78;4937202;28;46149;-64